Syracuse Hancock International Airport
KSYR : now visible

Airfield :











YOU CAN JOIN US ON...

 
LOGIN :

Register | Disclaimer

   EN    FR    IT 

 









Legend :    VFR   Marginal VFR   IFR   Intensive IFR   Very Intensive IFR
Visi :
Ceiling :
>= 8 km
>= 3000ft
5 to 8 km
1000 to 3000 ft
1500m to 5 km
500 to 1000 ft
800 to 1500m
200 to 500 ft
< 800m
< 200 ft
Symbols :   Thunderstorms  Fog  Heavy snow  Heavy precipitations  Wind > 20 kt






- Airport Elevation : 421 ft
- IATA code : SYR


KSYR - Syracuse Hancock International

CURRENT METAR :
  • 220954Z 00000KT 10SM FEW040 SCT110 SCT130 BKN180 22/20 A3005 RMK AO2 SLP168 T02220200

EXPIRED METARs :
  • 220854Z 00000KT 10SM SCT041 BKN180 22/19 A3005 RMK AO2 SLP168 T02220194 56008
  • 220754Z 00000KT 10SM FEW020 SCT140 22/20 A3005 RMK AO2 SLP170 T02220200
  • 220654Z 00000KT 10SM FEW046 SCT060 24/20 A3005 RMK AO2 SLP171 T02390200
  • 220554Z 25004KT 10SM FEW039 SCT045 BKN180 24/20 A3007 RMK AO2 SLP176 T02390200 10289 20233 58006

TAF KSYR
Valid from the 22 at 06:00 until the 23 at 06:00 UTC


220543Z 2206/2306 VRB03KT P6SM SCT040 BKN250
FM221200 26003KT P6SM VCSH BKN028 BKN050
FM221700 31005KT P6SM SCT045
KZBW FIR / North America



MET'MAP, your aeronautical weather chart ! - Copyright ORBIFLY December 2007 - Disclaimer

ORBIFLY MET'MAP TEAM :

Programming & Development : Alexandra Zaïnal
Original concept : Baudouin d'Aumeries
Technical & hardware support : Manuel Goepfert
Assistance : Marc-Olivier Méhu




SOURCES & CREDITS :

   NOAA       Earth
Advisory